Ballymahon, Ireland
Current Conditions -  °F | °C
As of 7:00 PM on Tuesday 25 Nov 2014 (Local Time) from EIKN Reporting Station
Moderate Fog Moderate Fog  
Wind Chill: 40°   Ceiling: 200
Heat Index: 45°   Visibility: 0.12mi
Dew Point: 45°   Wind: 9mph
Humidity: 100%   Direction: 150°SSE
Pressure: 30.06"   Gusts: NA
Location:  53.56°N, 7.77°W
Report Text: EIKN 251900Z 15008KT 130V200 0200 FG VV002 07/07 Q1018 NOSIG
Loading
Personal Weather Stations






























Interactive Weather Map New forecast layout! Learn more

10-Day Weather Forecast

Advertisements
Track Severe Weather on mobile